Time;durP1;ratioP1;P1;durP2;ratioP2;P2;SDS_P1;SDS_P2;PMS_P1;PMS_P2;Temp;Humidity;BMP_temperature;BMP_pressure;BME280_temperature;BME280_humidity;BME280_pressure;Samples;Min_cycle;Max_cycle;Signal;HPM_P1;HPM_P2
2021/07/14 00:00:10;;;;;;;2.50;2.30;;;21.90;69.00;;;;;;5055645;28;20032;-35
2021/07/14 00:02:35;;;;;;;2.55;2.35;;;22.00;69.00;;;;;;5056127;28;20036;-33
2021/07/14 00:05:06;;;;;;;2.63;2.42;;;21.90;68.90;;;;;;5057283;28;20398;-29
2021/07/14 00:07:31;;;;;;;2.75;2.55;;;22.00;69.00;;;;;;5066296;28;20098;-29
2021/07/14 00:09:57;;;;;;;2.70;2.53;;;22.00;69.00;;;;;;5072117;28;20451;-29
2021/07/14 00:12:24;;;;;;;2.70;2.60;;;21.90;69.10;;;;;;5070851;28;20028;-30
2021/07/14 00:22:05;;;;;;;2.47;2.35;;;21.90;69.00;;;;;;4994544;28;20050;-28
2021/07/14 00:23:15;;;;;;;2.20;2.10;;;21.90;69.20;;;;;;4997957;28;20639;-28
2021/07/14 00:25:41;;;;;;;2.47;2.28;;;21.90;69.20;;;;;;4997517;28;20030;-31
2021/07/14 00:28:06;;;;;;;2.25;2.05;;;21.90;69.20;;;;;;4999268;28;20053;-29
2021/07/14 00:30:35;;;;;;;2.53;2.35;;;21.90;69.30;;;;;;5008995;28;20068;-30
2021/07/14 00:33:01;;;;;;;2.60;2.38;;;21.90;69.30;;;;;;4997599;28;20038;-37
2021/07/14 00:35:26;;;;;;;2.50;2.30;;;21.90;69.20;;;;;;5003803;28;20049;-37
2021/07/14 00:37:52;;;;;;;2.55;2.35;;;21.90;70.00;;;;;;4999866;28;20046;-28
2021/07/14 00:40:17;;;;;;;2.40;2.20;;;21.90;69.30;;;;;;5005085;28;20558;-30
2021/07/14 00:42:45;;;;;;;2.78;2.58;;;21.90;69.30;;;;;;5006208;28;20050;-30
2021/07/14 00:45:11;;;;;;;2.60;2.40;;;21.80;69.30;;;;;;4993912;28;20121;-29
2021/07/14 00:47:37;;;;;;;2.15;2.05;;;21.90;69.20;;;;;;4994459;28;20509;-30
2021/07/14 00:50:04;;;;;;;2.80;2.60;;;21.90;69.30;;;;;;4994975;28;20130;-31
2021/07/14 00:52:30;;;;;;;2.50;2.30;;;21.80;69.30;;;;;;4994865;28;20073;-29
2021/07/14 00:54:56;;;;;;;3.63;2.25;;;21.90;69.40;;;;;;5044034;28;20064;-30
2021/07/14 00:57:25;;;;;;;2.58;2.38;;;21.80;69.40;;;;;;5032682;28;20073;-31
2021/07/14 00:59:51;;;;;;;2.72;2.53;;;21.80;69.30;;;;;;5059020;28;20028;-28
2021/07/14 01:02:17;;;;;;;2.80;2.63;;;21.90;69.40;;;;;;5064537;28;20029;-29
2021/07/14 01:04:45;;;;;;;3.10;2.90;;;21.80;69.40;;;;;;5041953;28;20056;-29
2021/07/14 01:07:19;;;;;;;2.60;2.45;;;21.80;69.40;;;;;;5039277;28;20489;-34
2021/07/14 01:09:48;;;;;;;;;;;21.80;69.40;;;;;;5055715;28;20025;-35
2021/07/14 01:12:19;;;;;;;2.88;2.38;;;21.80;69.40;;;;;;5058336;28;19952;-28
2021/07/14 01:14:54;;;;;;;2.47;2.35;;;21.80;69.50;;;;;;5048558;28;20028;-29
2021/07/14 01:17:19;;;;;;;2.90;2.70;;;21.80;69.50;;;;;;5029543;28;20028;-30
2021/07/14 01:20:27;;;;;;;2.33;2.13;;;21.80;69.50;;;;;;5048123;28;20799;-28
2021/07/14 01:22:59;;;;;;;2.90;2.60;;;21.80;69.40;;;;;;5046137;28;20036;-30
2021/07/14 01:25:50;;;;;;;2.88;2.50;;;21.80;69.60;;;;;;5040692;28;20021;-30
2021/07/14 01:28:16;;;;;;;3.10;2.90;;;21.80;69.50;;;;;;5055682;28;20043;-33
2021/07/14 01:30:42;;;;;;;2.38;2.28;;;21.80;69.60;;;;;;5031636;28;20017;-33
2021/07/14 01:33:07;;;;;;;2.70;2.50;;;21.80;69.60;;;;;;5040044;28;20056;-30
2021/07/14 01:35:34;;;;;;;2.70;2.50;;;21.80;70.00;;;;;;5038192;28;20088;-27
2021/07/14 01:37:59;;;;;;;2.67;2.38;;;21.80;69.70;;;;;;5058214;28;20029;-28
2021/07/14 01:40:25;;;;;;;2.92;2.60;;;21.80;69.60;;;;;;5040500;28;20048;-32
2021/07/14 01:42:53;;;;;;;2.65;2.45;;;21.80;69.70;;;;;;5036549;28;20048;-31
2021/07/14 01:45:19;;;;;;;3.22;2.92;;;21.80;69.70;;;;;;5048772;28;20489;-31
2021/07/14 01:47:44;;;;;;;2.63;2.42;;;21.80;69.80;;;;;;5058163;28;20100;-28
2021/07/14 01:50:10;;;;;;;6.07;2.50;;;21.80;69.80;;;;;;5041055;28;20378;-27
2021/07/14 01:52:36;;;;;;;2.42;2.33;;;21.80;69.80;;;;;;5057295;28;20528;-28
2021/07/14 01:55:04;;;;;;;2.63;2.42;;;21.80;69.80;;;;;;5037658;28;20017;-30
2021/07/14 01:57:31;;;;;;;2.42;2.22;;;21.80;69.80;;;;;;5037872;28;20071;-29
2021/07/14 01:59:56;;;;;;;2.47;2.38;;;21.70;69.70;;;;;;5057965;28;20037;-31
2021/07/14 02:02:25;;;;;;;2.85;2.65;;;21.80;69.80;;;;;;5040115;28;20032;-28
2021/07/14 02:04:51;;;;;;;4.13;2.80;;;21.70;69.70;;;;;;5043608;28;20102;-30
2021/07/14 02:07:24;;;;;;;2.95;2.75;;;21.70;69.70;;;;;;5038896;28;20564;-29
2021/07/14 02:09:50;;;;;;;3.10;2.90;;;21.80;69.80;;;;;;5054309;28;20039;-35
2021/07/14 02:12:24;;;;;;;3.08;2.83;;;21.80;69.70;;;;;;5021904;28;20045;-29
2021/07/14 02:15:08;;;;;;;2.90;2.70;;;21.70;69.70;;;;;;5048350;28;20031;-34
2021/07/14 02:17:50;;;;;;;2.95;2.75;;;21.70;69.70;;;;;;5065722;28;20036;-29
2021/07/14 02:20:17;;;;;;;2.90;2.70;;;21.70;69.70;;;;;;5033662;28;20535;-30
2021/07/14 02:22:43;;;;;;;2.60;2.50;;;21.70;69.80;;;;;;5065762;28;20492;-31
2021/07/14 02:25:10;;;;;;;2.97;2.72;;;21.70;69.80;;;;;;5068535;28;20025;-30
2021/07/14 02:27:36;;;;;;;3.22;3.03;;;21.70;69.90;;;;;;5053269;28;20033;-31
2021/07/14 02:30:16;;;;;;;3.00;2.80;;;21.70;69.80;;;;;;5058992;28;20035;-29
2021/07/14 02:32:45;;;;;;;3.10;2.90;;;21.70;69.90;;;;;;5058095;28;20032;-28
2021/07/14 02:35:11;;;;;;;2.97;2.78;;;21.70;69.90;;;;;;5062918;28;20063;-29
2021/07/14 02:37:58;;;;;;;2.70;2.60;;;21.80;69.90;;;;;;5047902;28;20060;-30
2021/07/14 02:40:39;;;;;;;3.03;2.78;;;21.70;69.90;;;;;;5033768;28;20020;-31
2021/07/14 02:43:05;;;;;;;2.88;2.67;;;21.70;69.90;;;;;;5054851;28;20025;-29
2021/07/14 02:45:32;;;;;;;3.00;2.80;;;21.70;69.80;;;;;;5054660;28;20104;-33
2021/07/14 02:48:00;;;;;;;4.25;2.83;;;21.70;69.90;;;;;;5039083;28;20029;-31
2021/07/14 02:50:26;;;;;;;3.30;3.00;;;21.70;69.90;;;;;;5062441;28;20032;-29
2021/07/14 02:52:53;;;;;;;2.78;2.55;;;21.70;70.00;;;;;;5047864;28;20031;-30
2021/07/14 02:55:24;;;;;;;3.10;2.80;;;21.70;69.90;;;;;;5048260;28;20021;-31
2021/07/14 02:57:52;;;;;;;3.08;2.88;;;21.70;70.70;;;;;;5068185;28;20805;-32
2021/07/14 03:00:17;;;;;;;2.88;2.67;;;21.70;70.00;;;;;;5038721;28;20032;-28
2021/07/14 03:02:43;;;;;;;2.42;2.33;;;21.70;70.00;;;;;;5039233;28;20112;-29
2021/07/14 03:05:09;;;;;;;2.45;2.28;;;21.70;70.00;;;;;;5039205;28;20032;-29
2021/07/14 03:07:34;;;;;;;2.80;2.70;;;21.70;70.00;;;;;;5049307;28;20048;-30
2021/07/14 03:10:00;;;;;;;2.75;2.55;;;21.70;70.00;;;;;;5034965;28;20087;-30
2021/07/14 03:12:26;;;;;;;3.30;3.10;;;21.70;70.00;;;;;;5021138;28;20398;-32
2021/07/14 03:14:56;;;;;;;2.83;2.63;;;21.70;70.00;;;;;;5048618;28;20020;-29
2021/07/14 03:17:22;;;;;;;2.70;2.50;;;21.70;70.00;;;;;;5047472;28;20029;-29
2021/07/14 03:19:47;;;;;;;3.42;3.00;;;21.70;70.00;;;;;;5047175;28;20020;-32
2021/07/14 03:22:13;;;;;;;3.22;2.70;;;21.70;70.10;;;;;;5050284;28;20029;-30
2021/07/14 03:24:40;;;;;;;2.85;2.65;;;21.70;70.00;;;;;;5036178;28;20385;-29
2021/07/14 03:27:07;;;;;;;2.90;2.70;;;21.60;70.00;;;;;;5038338;28;20064;-26
2021/07/14 03:29:32;;;;;;;3.40;3.10;;;21.70;70.00;;;;;;5045172;28;20016;-30
2021/07/14 03:31:59;;;;;;;3.00;2.67;;;21.70;70.00;;;;;;5030675;28;20052;-30
2021/07/14 03:34:25;;;;;;;2.58;2.38;;;21.70;70.00;;;;;;5029063;28;20021;-31
2021/07/14 03:36:51;;;;;;;2.95;2.40;;;21.60;70.00;;;;;;5051731;28;20044;-32
2021/07/14 03:39:16;;;;;;;3.50;3.20;;;21.60;70.10;;;;;;5050426;28;20027;-30
2021/07/14 03:41:42;;;;;;;2.88;2.65;;;21.60;70.90;;;;;;5051067;28;20086;-30
2021/07/14 03:44:08;;;;;;;3.35;3.05;;;21.60;70.00;;;;;;5034579;28;20085;-30
2021/07/14 03:46:34;;;;;;;3.05;2.85;;;21.60;70.10;;;;;;5036030;28;20104;-32
2021/07/14 03:49:00;;;;;;;2.97;2.78;;;21.60;70.10;;;;;;5039169;28;20028;-34
2021/07/14 03:51:26;;;;;;;3.45;3.10;;;21.60;70.10;;;;;;5041011;28;20109;-34
2021/07/14 03:53:52;;;;;;;2.63;2.53;;;21.60;70.00;;;;;;5050885;28;20107;-28
2021/07/14 03:56:21;;;;;;;3.25;2.95;;;21.60;70.10;;;;;;5051177;28;20689;-35
2021/07/14 03:58:47;;;;;;;3.10;2.90;;;21.60;70.10;;;;;;5050256;28;20036;-28
2021/07/14 04:01:13;;;;;;;3.10;2.90;;;21.60;70.10;;;;;;5040201;28;20029;-31
2021/07/14 04:03:39;;;;;;;2.97;2.55;;;21.60;70.10;;;;;;5037439;28;20037;-28
2021/07/14 04:06:05;;;;;;;3.10;2.90;;;21.60;70.10;;;;;;5052813;28;20028;-31
2021/07/14 04:08:32;;;;;;;4.93;3.13;;;21.60;70.10;;;;;;5062329;28;20036;-32
2021/07/14 04:10:58;;;;;;;2.75;2.47;;;21.60;70.10;;;;;;5060381;28;20091;-33
2021/07/14 04:13:24;;;;;;;2.95;2.75;;;21.60;70.10;;;;;;5066407;28;20036;-31
2021/07/14 04:15:49;;;;;;;2.60;2.47;;;21.60;70.10;;;;;;5072589;28;20104;-28
2021/07/14 04:18:15;;;;;;;3.28;2.90;;;21.60;70.20;;;;;;5070279;28;20040;-32
2021/07/14 04:20:41;;;;;;;2.63;2.42;;;21.60;70.10;;;;;;5068057;28;20021;-30
2021/07/14 04:23:07;;;;;;;2.70;2.50;;;21.60;70.20;;;;;;5068162;28;20037;-28
2021/07/14 04:25:33;;;;;;;2.60;2.50;;;21.60;70.20;;;;;;5070427;28;20044;-32
2021/07/14 04:27:59;;;;;;;3.75;2.67;;;21.60;70.20;;;;;;5055941;28;20037;-35
2021/07/14 04:30:24;;;;;;;2.75;2.65;;;21.60;70.20;;;;;;5058221;28;20040;-28
2021/07/14 04:32:50;;;;;;;2.75;2.55;;;21.60;70.20;;;;;;5060093;28;20032;-27
2021/07/14 04:35:15;;;;;;;2.67;2.58;;;21.60;70.20;;;;;;5059653;28;20021;-31
2021/07/14 04:37:42;;;;;;;3.05;2.85;;;21.60;70.20;;;;;;5059335;28;20104;-30
2021/07/14 04:40:08;;;;;;;2.67;2.58;;;21.60;70.20;;;;;;5057014;28;20138;-29
2021/07/14 04:42:33;;;;;;;2.67;2.58;;;21.60;70.20;;;;;;5057194;28;20020;-27
2021/07/14 04:44:59;;;;;;;3.50;3.20;;;21.60;70.20;;;;;;5059253;28;20504;-30
2021/07/14 04:47:24;;;;;;;3.33;3.05;;;21.60;70.20;;;;;;5058849;28;20017;-32
2021/07/14 04:49:50;;;;;;;3.35;2.88;;;21.60;70.20;;;;;;5065317;28;20047;-32
2021/07/14 04:52:16;;;;;;;3.00;2.80;;;21.60;70.30;;;;;;5066129;28;20482;-32
2021/07/14 04:54:42;;;;;;;2.88;2.67;;;21.60;70.30;;;;;;5059314;28;20033;-31
2021/07/14 04:57:08;;;;;;;2.83;2.63;;;21.60;70.30;;;;;;5069487;28;20120;-28
2021/07/14 04:59:35;;;;;;;2.78;2.58;;;21.60;70.40;;;;;;5067603;28;20024;-28
2021/07/14 05:02:04;;;;;;;3.35;3.15;;;21.60;70.40;;;;;;5064419;28;20028;-30
2021/07/14 05:04:33;;;;;;;3.30;3.10;;;21.60;70.40;;;;;;5059129;28;20031;-31
2021/07/14 05:06:59;;;;;;;2.80;2.60;;;21.60;70.40;;;;;;5057863;28;20386;-28
2021/07/14 05:09:25;;;;;;;2.72;2.63;;;21.60;70.40;;;;;;5060521;28;20058;-30
2021/07/14 05:11:50;;;;;;;3.55;3.35;;;21.60;70.50;;;;;;5067670;28;20078;-28
2021/07/14 05:14:16;;;;;;;3.60;3.30;;;21.60;70.40;;;;;;5067504;28;20025;-30
2021/07/14 05:16:42;;;;;;;2.95;2.75;;;21.60;70.40;;;;;;5066998;28;20041;-30
2021/07/14 05:19:08;;;;;;;3.08;2.88;;;21.60;70.50;;;;;;5070056;28;20025;-28
2021/07/14 05:21:33;;;;;;;3.38;3.15;;;21.60;70.50;;;;;;5038738;28;20032;-31
2021/07/14 05:23:59;;;;;;;3.60;3.30;;;21.60;70.50;;;;;;5058330;28;20031;-31
2021/07/14 05:26:24;;;;;;;2.90;2.63;;;21.60;70.40;;;;;;5063835;28;20070;-35
2021/07/14 05:28:50;;;;;;;2.90;2.70;;;21.60;70.50;;;;;;5066095;28;20033;-32
2021/07/14 05:31:16;;;;;;;2.83;2.70;;;21.60;70.40;;;;;;5064694;28;20036;-34
2021/07/14 05:33:42;;;;;;;3.30;3.00;;;21.60;70.40;;;;;;5063968;28;20117;-35
2021/07/14 05:36:08;;;;;;;3.20;3.00;;;21.60;70.30;;;;;;5061594;28;20382;-31
2021/07/14 05:38:34;;;;;;;2.97;2.72;;;21.50;70.30;;;;;;5061102;28;20040;-32
2021/07/14 05:40:59;;;;;;;3.97;2.67;;;21.60;70.50;;;;;;5060435;28;20025;-33
2021/07/14 05:43:25;;;;;;;2.80;2.60;;;21.60;70.70;;;;;;5063092;28;20028;-38
2021/07/14 05:45:51;;;;;;;3.17;2.85;;;21.60;70.90;;;;;;5064326;28;20064;-30
2021/07/14 05:48:16;;;;;;;4.53;2.60;;;21.60;70.90;;;;;;5056979;28;20140;-35
2021/07/14 05:50:43;;;;;;;3.30;2.60;;;21.60;70.90;;;;;;5065295;28;20036;-32
2021/07/14 05:53:08;;;;;;;2.60;2.50;;;21.60;70.70;;;;;;5064414;28;20500;-35
2021/07/14 05:55:34;;;;;;;3.10;2.90;;;21.60;70.60;;;;;;5063305;28;20063;-39
2021/07/14 05:58:00;;;;;;;2.83;2.63;;;21.60;70.50;;;;;;5064801;28;20045;-30
2021/07/14 06:00:27;;;;;;;3.03;2.88;;;21.60;70.60;;;;;;5062789;28;20498;-33
2021/07/14 06:02:52;;;;;;;2.83;2.67;;;21.60;70.50;;;;;;5068078;28;20094;-35
2021/07/14 06:05:18;;;;;;;2.67;2.47;;;21.60;70.50;;;;;;5065130;28;20694;-34
2021/07/14 06:07:43;;;;;;;2.85;2.65;;;21.60;70.50;;;;;;5059815;28;20037;-32
2021/07/14 06:10:10;;;;;;;2.70;2.50;;;21.60;70.50;;;;;;5064205;28;20033;-34
2021/07/14 06:12:36;;;;;;;3.72;2.80;;;21.60;70.40;;;;;;5068007;28;20050;-34
2021/07/14 06:15:02;;;;;;;2.92;2.72;;;21.60;70.40;;;;;;5060292;28;20025;-31
2021/07/14 06:17:27;;;;;;;3.00;2.80;;;21.60;70.30;;;;;;5059326;28;20093;-31
2021/07/14 06:19:53;;;;;;;2.97;2.78;;;21.60;70.30;;;;;;5060836;28;20017;-35
2021/07/14 06:22:19;;;;;;;2.90;2.70;;;21.60;70.20;;;;;;5061169;28;20033;-31
2021/07/14 06:24:44;;;;;;;3.28;3.08;;;21.60;70.40;;;;;;5065325;28;20024;-32
2021/07/14 06:27:11;;;;;;;3.00;2.80;;;21.60;70.30;;;;;;5064700;28;20444;-32
2021/07/14 06:29:37;;;;;;;2.83;2.72;;;21.60;70.30;;;;;;5064878;28;20031;-32
2021/07/14 06:32:03;;;;;;;2.85;2.67;;;21.60;70.30;;;;;;5060010;28;20132;-35
2021/07/14 06:34:28;;;;;;;2.90;2.70;;;21.60;70.30;;;;;;5060568;28;20029;-30
2021/07/14 06:36:54;;;;;;;2.60;2.47;;;21.60;70.40;;;;;;5061706;28;20029;-33
2021/07/14 06:39:20;;;;;;;2.10;2.00;;;21.60;70.30;;;;;;5062052;28;20060;-29
2021/07/14 06:41:45;;;;;;;2.53;2.42;;;21.60;70.30;;;;;;5067303;28;20028;-34
2021/07/14 06:44:11;;;;;;;2.38;2.28;;;21.60;70.20;;;;;;5058534;28;20029;-32
2021/07/14 06:46:37;;;;;;;2.63;2.42;;;21.60;70.30;;;;;;5066444;28;20064;-32
2021/07/14 06:49:02;;;;;;;2.40;2.30;;;21.60;70.60;;;;;;5065340;28;20021;-31
2021/07/14 06:51:28;;;;;;;2.65;2.55;;;21.70;70.70;;;;;;5069697;28;20098;-31
2021/07/14 06:53:54;;;;;;;2.60;2.50;;;21.60;70.50;;;;;;5066577;28;20166;-36
2021/07/14 06:56:19;;;;;;;3.60;3.10;;;21.60;70.00;;;;;;5064553;28;20025;-34
2021/07/14 06:58:45;;;;;;;2.90;2.70;;;21.60;70.60;;;;;;5066921;28;20040;-36
2021/07/14 07:01:11;;;;;;;3.30;2.60;;;21.70;71.50;;;;;;5063238;28;20107;-30
2021/07/14 07:03:36;;;;;;;3.00;2.65;;;21.70;71.50;;;;;;5067683;28;20024;-34
2021/07/14 07:06:05;;;;;;;2.63;2.42;;;21.70;70.70;;;;;;5060453;28;20103;-33
2021/07/14 07:08:34;;;;;;;2.70;2.60;;;21.70;71.60;;;;;;5056133;28;20028;-34
2021/07/14 07:11:00;;;;;;;2.58;2.47;;;21.70;71.40;;;;;;5056765;28;20041;-33
2021/07/14 07:13:26;;;;;;;3.22;3.03;;;21.70;71.50;;;;;;5052971;28;20030;-34
2021/07/14 07:15:53;;;;;;;3.15;2.65;;;21.80;71.50;;;;;;5056026;28;20420;-30
2021/07/14 07:18:19;;;;;;;3.25;3.05;;;21.70;71.50;;;;;;5064052;28;20473;-27
2021/07/14 07:20:45;;;;;;;3.05;2.85;;;21.80;71.10;;;;;;5059589;28;20131;-32
2021/07/14 07:23:11;;;;;;;3.10;2.90;;;21.80;70.60;;;;;;5059951;28;20107;-35
2021/07/14 07:25:37;;;;;;;2.72;2.60;;;21.80;70.90;;;;;;5061365;28;20610;-33
2021/07/14 07:28:03;;;;;;;4.95;2.90;;;21.80;71.20;;;;;;5063659;28;20040;-33
2021/07/14 07:30:29;;;;;;;2.85;2.75;;;21.70;71.10;;;;;;5063414;28;20020;-32
2021/07/14 07:32:55;;;;;;;3.47;2.63;;;21.80;71.40;;;;;;5044133;28;20060;-30
2021/07/14 07:35:20;;;;;;;2.58;2.38;;;21.80;71.60;;;;;;5057319;28;20512;-30
2021/07/14 07:37:48;;;;;;;2.45;2.35;;;21.80;71.60;;;;;;4794235;28;10000526;-31
2021/07/14 07:40:14;;;;;;;2.78;2.67;;;21.80;70.60;;;;;;5056437;28;20237;-34
2021/07/14 07:42:40;;;;;;;2.60;2.33;;;21.80;70.60;;;;;;5067029;28;20557;-32
2021/07/14 07:45:06;;;;;;;3.35;2.45;;;21.80;70.30;;;;;;5065788;28;20029;-34
2021/07/14 07:47:31;;;;;;;2.70;2.50;;;21.90;70.80;;;;;;5058333;28;20025;-33
2021/07/14 07:49:57;;;;;;;2.78;2.65;;;21.90;70.30;;;;;;5060198;28;20106;-33
2021/07/14 07:52:23;;;;;;;2.70;2.50;;;21.90;70.60;;;;;;5064566;28;20017;-34
2021/07/14 07:54:49;;;;;;;2.80;2.60;;;22.00;70.60;;;;;;5067991;28;20021;-30
2021/07/14 07:57:14;;;;;;;2.42;2.33;;;21.90;73.30;;;;;;5066857;28;20067;-34
2021/07/14 07:59:40;;;;;;;2.65;2.45;;;21.90;73.40;;;;;;5060730;28;20025;-34
2021/07/14 08:02:05;;;;;;;2.90;2.70;;;21.90;71.60;;;;;;5046476;28;20031;-37
2021/07/14 08:04:31;;;;;;;2.13;2.03;;;21.80;71.10;;;;;;5064569;28;20025;-35
2021/07/14 08:06:57;;;;;;;3.40;2.60;;;21.80;71.60;;;;;;5056254;28;20045;-31
2021/07/14 08:09:22;;;;;;;4.00;2.53;;;21.80;72.80;;;;;;5067502;28;20051;-31
2021/07/14 08:11:48;;;;;;;3.00;2.80;;;21.80;73.30;;;;;;5063883;28;20047;-30
2021/07/14 08:14:16;;;;;;;3.45;3.20;;;21.90;71.80;;;;;;5061161;28;20428;-29
2021/07/14 08:16:42;;;;;;;3.72;3.30;;;21.90;73.00;;;;;;5065073;28;20048;-34
2021/07/14 08:19:07;;;;;;;3.53;3.13;;;21.90;73.20;;;;;;5046809;28;20409;-33
2021/07/14 08:21:33;;;;;;;3.17;2.88;;;21.90;73.40;;;;;;5047324;28;20020;-35
2021/07/14 08:23:58;;;;;;;4.25;3.00;;;21.90;73.30;;;;;;5061453;28;20100;-34
2021/07/14 08:26:25;;;;;;;3.17;2.78;;;21.90;73.10;;;;;;5066577;28;20025;-36
2021/07/14 08:28:51;;;;;;;2.50;2.30;;;21.90;73.00;;;;;;5065886;28;20024;-33
2021/07/14 08:31:17;;;;;;;2.55;2.45;;;21.90;73.00;;;;;;5066553;28;20056;-33
2021/07/14 08:33:42;;;;;;;2.92;2.78;;;21.90;72.90;;;;;;5070551;28;20059;-32
2021/07/14 08:36:08;;;;;;;4.28;3.00;;;21.90;72.70;;;;;;5072257;28;20115;-29
2021/07/14 08:38:33;;;;;;;2.63;2.53;;;21.90;72.50;;;;;;5069278;28;20071;-31
2021/07/14 08:40:59;;;;;;;2.50;2.30;;;21.90;72.30;;;;;;5065537;28;20388;-36
2021/07/14 08:43:29;;;;;;;2.63;2.45;;;21.90;72.20;;;;;;5051773;28;20025;-29
2021/07/14 08:45:56;;;;;;;2.80;2.70;;;21.90;72.10;;;;;;5062392;28;20423;-30
2021/07/14 08:48:22;;;;;;;2.97;2.70;;;21.90;71.80;;;;;;5071586;28;20017;-32
2021/07/14 08:50:48;;;;;;;2.80;2.60;;;21.90;71.60;;;;;;5053371;28;20029;-32
2021/07/14 08:53:18;;;;;;;2.65;2.55;;;21.90;71.60;;;;;;5049654;28;20016;-28
2021/07/14 08:55:44;;;;;;;2.53;2.35;;;21.90;71.60;;;;;;5071515;28;20021;-32
2021/07/14 08:58:14;;;;;;;2.72;2.53;;;21.90;71.50;;;;;;5069408;28;20060;-31
2021/07/14 09:00:40;;;;;;;2.78;2.55;;;21.90;71.40;;;;;;5069068;28;20066;-33
2021/07/14 09:03:05;;;;;;;3.20;3.00;;;21.90;71.30;;;;;;5071227;28;20078;-32
2021/07/14 09:05:31;;;;;;;2.92;2.72;;;21.90;71.20;;;;;;5069606;28;20439;-29
2021/07/14 09:07:57;;;;;;;2.90;2.72;;;21.90;71.00;;;;;;5068798;28;20040;-30
2021/07/14 09:10:22;;;;;;;3.00;2.80;;;21.90;70.90;;;;;;5070355;28;20199;-33
2021/07/14 09:12:49;;;;;;;2.65;2.55;;;21.90;70.90;;;;;;5019992;28;20072;-34
2021/07/14 09:15:17;;;;;;;2.60;2.50;;;21.90;70.80;;;;;;5067521;28;20047;-31
2021/07/14 09:17:52;;;;;;;2.63;2.53;;;21.90;70.70;;;;;;5060753;28;20041;-31
2021/07/14 09:20:21;;;;;;;2.00;1.90;;;21.90;70.60;;;;;;5059897;28;20035;-32
2021/07/14 09:22:47;;;;;;;2.08;1.98;;;21.90;70.60;;;;;;5061775;28;20033;-33
2021/07/14 09:25:14;;;;;;;2.70;2.60;;;21.90;70.60;;;;;;5068918;28;20500;-28
2021/07/14 09:27:55;;;;;;;2.78;2.55;;;21.90;70.50;;;;;;5069302;28;20032;-28
2021/07/14 09:30:23;;;;;;;3.65;2.53;;;21.90;70.40;;;;;;5048055;28;20017;-28
2021/07/14 09:32:58;;;;;;;2.95;2.75;;;21.90;70.30;;;;;;5066293;28;20527;-31
2021/07/14 09:35:25;;;;;;;2.20;2.10;;;21.90;70.30;;;;;;5060145;28;20021;-37
2021/07/14 09:37:52;;;;;;;2.40;2.30;;;22.00;70.30;;;;;;5048486;28;20032;-34
2021/07/14 09:40:18;;;;;;;2.55;2.45;;;22.00;70.20;;;;;;5057986;28;20027;-34
2021/07/14 09:42:58;;;;;;;2.53;2.33;;;22.00;70.30;;;;;;5061942;28;20029;-31
2021/07/14 09:45:37;;;;;;;2.20;2.10;;;21.90;71.10;;;;;;5057565;28;20082;-30
2021/07/14 09:48:07;;;;;;;2.90;2.70;;;21.90;70.40;;;;;;5064251;28;20119;-33
2021/07/14 09:50:38;;;;;;;2.38;2.28;;;21.90;70.40;;;;;;5058463;28;20056;-30
2021/07/14 09:53:05;;;;;;;2.50;2.40;;;22.00;70.50;;;;;;5060777;28;20031;-36
2021/07/14 09:55:32;;;;;;;2.60;2.40;;;22.00;70.40;;;;;;5054685;28;20082;-30
2021/07/14 09:58:10;;;;;;;2.50;2.40;;;22.00;70.30;;;;;;5051943;28;20063;-29
2021/07/14 10:00:47;;;;;;;3.00;2.80;;;22.00;70.30;;;;;;5070029;28;20386;-35
2021/07/14 10:03:21;;;;;;;2.97;2.65;;;22.00;70.20;;;;;;5063005;28;20036;-33
2021/07/14 10:05:47;;;;;;;2.85;2.65;;;22.00;70.10;;;;;;5062369;28;20029;-34
2021/07/14 10:08:21;;;;;;;3.10;2.80;;;22.00;70.20;;;;;;5061798;28;20032;-30
2021/07/14 10:10:49;;;;;;;2.55;2.45;;;22.00;70.10;;;;;;5059718;28;20043;-31
2021/07/14 10:13:14;;;;;;;2.88;2.72;;;22.00;70.10;;;;;;5062132;28;20037;-31
2021/07/14 10:15:40;;;;;;;3.40;3.10;;;22.00;70.10;;;;;;5059650;28;20035;-32
2021/07/14 10:18:10;;;;;;;2.42;2.28;;;22.00;69.90;;;;;;5046145;28;20098;-28
2021/07/14 10:20:38;;;;;;;2.25;2.15;;;22.10;70.00;;;;;;5061877;28;20131;-30
2021/07/14 10:23:17;;;;;;;2.80;2.60;;;22.10;70.00;;;;;;5059538;28;20036;-32
2021/07/14 10:25:44;;;;;;;2.38;2.28;;;22.10;71.00;;;;;;5062171;28;20075;-31
2021/07/14 10:28:12;;;;;;;2.63;2.38;;;22.10;70.10;;;;;;5062464;28;20386;-34
2021/07/14 10:30:40;;;;;;;2.47;2.38;;;22.10;70.00;;;;;;5065366;28;20028;-28
2021/07/14 10:33:06;;;;;;;2.78;2.58;;;22.00;70.00;;;;;;5064665;28;20588;-27
2021/07/14 10:35:38;;;;;;;3.17;2.53;;;22.00;69.80;;;;;;4707074;28;9999893;-29
2021/07/14 10:38:05;;;;;;;2.65;2.45;;;22.10;69.70;;;;;;5039977;28;20120;-33
2021/07/14 10:40:30;;;;;;;2.92;2.70;;;22.10;69.80;;;;;;5062086;28;20059;-32
2021/07/14 10:42:56;;;;;;;2.60;2.50;;;22.10;69.70;;;;;;5055419;28;20406;-31
2021/07/14 10:45:22;;;;;;;2.75;2.63;;;22.10;69.60;;;;;;5055791;28;20033;-30
2021/07/14 10:47:48;;;;;;;2.63;2.53;;;22.20;69.50;;;;;;5064586;28;20036;-31
2021/07/14 10:50:15;;;;;;;2.70;2.60;;;22.20;69.40;;;;;;5040304;28;20027;-32
2021/07/14 10:52:41;;;;;;;2.47;2.38;;;22.20;69.50;;;;;;5065270;28;20046;-30
2021/07/14 10:55:09;;;;;;;2.88;2.78;;;22.20;69.10;;;;;;5062027;28;20025;-31
2021/07/14 10:57:35;;;;;;;2.70;2.60;;;22.20;69.20;;;;;;5040180;28;20036;-33
2021/07/14 11:00:01;;;;;;;2.50;2.40;;;22.30;69.10;;;;;;5046341;28;20059;-34
2021/07/14 11:02:40;;;;;;;2.67;2.58;;;22.20;70.00;;;;;;5028792;28;20055;-33
2021/07/14 11:05:06;;;;;;;2.90;2.80;;;22.20;69.20;;;;;;5056944;28;20025;-29
2021/07/14 11:07:36;;;;;;;2.63;2.53;;;22.30;69.10;;;;;;5060253;28;20036;-35
2021/07/14 11:10:22;;;;;;;2.60;2.50;;;22.20;69.20;;;;;;5031112;28;20061;-31
2021/07/14 11:12:47;;;;;;;2.70;2.50;;;22.20;69.20;;;;;;5034028;28;20036;-32
2021/07/14 11:15:14;;;;;;;3.10;2.80;;;22.30;69.40;;;;;;5032590;28;20033;-33
2021/07/14 11:17:39;;;;;;;2.88;2.78;;;22.30;69.40;;;;;;5024495;28;20121;-30
2021/07/14 11:20:11;;;;;;;2.90;2.72;;;22.30;69.40;;;;;;5051981;28;20103;-33
2021/07/14 11:22:40;;;;;;;2.85;2.70;;;22.30;69.50;;;;;;5060628;28;20028;-31
2021/07/14 11:25:20;;;;;;;2.88;2.60;;;22.20;69.40;;;;;;5044022;28;20048;-30
2021/07/14 11:27:50;;;;;;;2.80;2.70;;;22.30;70.30;;;;;;5062187;28;20045;-32
2021/07/14 11:30:16;;;;;;;2.78;2.67;;;22.30;69.40;;;;;;5063501;28;20024;-33
2021/07/14 11:32:42;;;;;;;2.60;2.50;;;22.30;69.40;;;;;;5062164;28;20032;-33
2021/07/14 11:35:17;;;;;;;3.00;2.60;;;22.30;69.60;;;;;;5046327;28;20032;-32
2021/07/14 11:37:49;;;;;;;3.00;2.80;;;22.30;69.50;;;;;;5061754;28;20037;-29
2021/07/14 11:40:18;;;;;;;3.03;2.83;;;22.30;69.50;;;;;;5062688;28;20021;-35
2021/07/14 11:42:57;;;;;;;2.70;2.60;;;22.30;68.90;;;;;;5064539;28;20520;-29
2021/07/14 11:45:26;;;;;;;3.10;3.00;;;22.30;68.80;;;;;;5058735;28;20107;-31
2021/07/14 11:48:13;;;;;;;2.63;2.53;;;22.30;68.90;;;;;;5046551;28;20107;-30
2021/07/14 11:51:08;;;;;;;2.83;2.72;;;22.30;69.10;;;;;;5059197;28;20494;-30
2021/07/14 11:53:38;;;;;;;2.80;2.70;;;22.30;69.00;;;;;;5053398;28;20121;-31
2021/07/14 11:56:10;;;;;;;2.72;2.63;;;22.30;68.80;;;;;;5052686;28;20481;-31
2021/07/14 11:58:41;;;;;;;2.78;2.58;;;22.40;68.70;;;;;;5060188;28;20045;-35
2021/07/14 12:01:20;;;;;;;2.28;2.17;;;22.40;68.80;;;;;;5060534;28;20699;-32
2021/07/14 12:04:01;;;;;;;2.63;2.42;;;22.40;69.10;;;;;;5067200;28;20033;-34
2021/07/14 12:06:52;;;;;;;2.60;2.50;;;22.30;69.10;;;;;;5063630;28;20029;-41
2021/07/14 12:09:18;;;;;;;2.58;2.38;;;22.30;69.20;;;;;;5058912;28;20043;-34
2021/07/14 12:11:43;;;;;;;2.70;2.60;;;22.40;69.00;;;;;;5062121;28;20433;-36
2021/07/14 12:14:16;;;;;;;2.40;2.30;;;22.40;69.10;;;;;;5061755;28;20036;-39
2021/07/14 12:17:09;;;;;;;3.30;3.10;;;22.30;69.20;;;;;;5058679;28;20591;-33
2021/07/14 12:19:35;;;;;;;3.00;2.80;;;22.30;69.20;;;;;;5057367;28;20120;-34
2021/07/14 12:22:28;;;;;;;3.30;3.10;;;22.30;69.20;;;;;;5041414;28;20025;-37
2021/07/14 12:25:09;;;;;;;3.30;3.10;;;22.40;69.10;;;;;;5052178;28;20067;-28
2021/07/14 12:27:36;;;;;;;3.20;3.10;;;22.40;69.20;;;;;;5063934;28;20078;-33
2021/07/14 12:30:09;;;;;;;3.10;2.90;;;22.40;68.90;;;;;;5058000;28;20029;-31
2021/07/14 12:32:36;;;;;;;3.17;3.03;;;22.40;69.10;;;;;;5056543;28;20028;-30
2021/07/14 12:35:10;;;;;;;2.92;2.80;;;22.50;68.70;;;;;;5061780;28;20105;-31
2021/07/14 12:37:43;;;;;;;3.22;3.03;;;22.50;68.30;;;;;;5061623;28;20040;-30
2021/07/14 12:40:10;;;;;;;3.30;3.10;;;22.50;68.50;;;;;;5056183;28;20024;-30
2021/07/14 12:42:36;;;;;;;2.70;2.50;;;22.50;68.70;;;;;;5038743;28;20041;-33
2021/07/14 12:45:02;;;;;;;2.95;2.75;;;22.50;68.60;;;;;;5058341;28;20096;-29
2021/07/14 12:47:27;;;;;;;2.97;2.78;;;22.50;69.00;;;;;;5040628;28;20024;-28
2021/07/14 12:49:53;;;;;;;2.78;2.63;;;22.50;68.90;;;;;;5061592;28;20518;-30
2021/07/14 12:52:22;;;;;;;3.08;2.45;;;22.50;69.10;;;;;;5050411;28;20020;-27
2021/07/14 12:54:53;;;;;;;2.70;2.60;;;22.50;69.20;;;;;;5067209;28;20117;-30
2021/07/14 12:57:19;;;;;;;2.60;2.50;;;22.50;69.10;;;;;;5068325;28;20430;-36